Time;durP1;ratioP1;P1;durP2;ratioP2;P2;SDS_P1;SDS_P2;PMS_P1;PMS_P2;Temp;Humidity;BMP_temperature;BMP_pressure;BME280_temperature;BME280_humidity;BME280_pressure;Samples;Min_cycle;Max_cycle;Signal;HPM_P1;HPM_P2
2021/10/24 00:01:28;;;;;;;16.95;6.78;;;;;;;3.60;71.23;101066.97;4958714;29;20499;-60
2021/10/24 00:03:59;;;;;;;19.00;7.32;;;;;;;3.66;70.52;101067.25;4959240;29;20472;-60
2021/10/24 00:06:34;;;;;;;16.30;6.70;;;;;;;3.67;70.34;101053.84;4958534;29;20047;-60
2021/10/24 00:09:07;;;;;;;17.58;7.53;;;;;;;3.70;70.06;101064.94;4958443;29;20048;-59
2021/10/24 00:11:40;;;;;;;14.32;6.82;;;;;;;3.71;70.00;101066.69;4959054;29;20370;-59
2021/10/24 00:14:13;;;;;;;17.60;7.18;;;;;;;3.61;70.33;101058.56;4958443;29;20146;-60
2021/10/24 00:16:45;;;;;;;14.90;7.13;;;;;;;3.68;69.70;101066.53;4958380;29;20059;-60
2021/10/24 00:19:18;;;;;;;15.63;6.95;;;;;;;3.45;70.55;101067.06;4958251;29;20054;-60
2021/10/24 00:21:49;;;;;;;16.15;7.25;;;;;;;3.32;70.93;101069.75;4958195;29;20054;-60
2021/10/24 00:24:21;;;;;;;16.40;7.47;;;;;;;3.37;70.03;101070.84;4958536;29;20413;-60
2021/10/24 00:26:51;;;;;;;14.65;7.03;;;;;;;3.28;69.85;101078.84;4958464;29;20130;-60
2021/10/24 00:29:24;;;;;;;13.48;6.10;;;;;;;2.99;70.21;101063.00;4958886;29;20053;-60
2021/10/24 00:31:53;;;;;;;15.52;6.60;;;;;;;2.91;70.75;101070.16;4958422;29;20051;-60
2021/10/24 00:34:26;;;;;;;13.18;6.53;;;;;;;2.74;70.75;101075.97;4958324;29;20048;-59
2021/10/24 00:36:57;;;;;;;17.58;7.40;;;;;;;2.55;71.50;101084.22;4958298;29;20497;-59
2021/10/24 00:39:26;;;;;;;18.05;7.88;;;;;;;2.84;71.96;101083.22;4958200;29;20117;-60
2021/10/24 00:41:56;;;;;;;15.25;7.43;;;;;;;3.00;72.13;101085.75;4957952;29;20051;-60
2021/10/24 00:44:33;;;;;;;16.73;7.30;;;;;;;3.06;71.66;101090.25;4927033;29;20079;-60
2021/10/24 00:47:05;;;;;;;13.70;7.55;;;;;;;2.98;71.05;101091.50;4958097;29;20050;-60
2021/10/24 00:49:36;;;;;;;19.42;9.68;;;;;;;2.90;71.42;101092.78;4940646;29;20061;-60
2021/10/24 00:52:07;;;;;;;19.23;10.15;;;;;;;2.97;71.57;101089.78;4957806;29;20133;-60
2021/10/24 00:54:40;;;;;;;21.25;11.00;;;;;;;3.11;72.20;101088.84;4958054;29;20074;-59
2021/10/24 00:57:13;;;;;;;17.27;10.30;;;;;;;3.07;72.55;101081.91;4957701;29;20056;-60
2021/10/24 00:59:42;;;;;;;19.88;9.65;;;;;;;2.89;71.79;101091.91;4957606;29;20486;-59
2021/10/24 01:02:16;;;;;;;18.33;8.85;;;;;;;2.77;72.75;101092.91;4941024;29;20047;-60
2021/10/24 01:04:45;;;;;;;20.27;9.40;;;;;;;2.87;72.79;101095.13;4957853;29;20410;-60
2021/10/24 01:07:17;;;;;;;22.90;9.88;;;;;;;2.78;72.53;101098.06;4957697;29;20556;-60
2021/10/24 01:09:47;;;;;;;17.17;8.70;;;;;;;2.67;72.29;101094.06;4957298;28;20048;-60
2021/10/24 01:12:17;;;;;;;18.17;8.80;;;;;;;2.64;73.57;101097.31;4957355;29;20055;-60
2021/10/24 01:14:51;;;;;;;21.45;9.57;;;;;;;2.58;72.87;101094.47;4957388;29;20043;-60
2021/10/24 01:17:23;;;;;;;17.60;8.65;;;;;;;2.59;73.11;101096.19;4957301;29;20051;-60
2021/10/24 01:19:53;;;;;;;16.40;8.13;;;;;;;2.72;73.48;101092.66;4956992;29;20078;-60
2021/10/24 01:22:24;;;;;;;;;;;;;;;2.72;73.18;101093.53;4957931;29;20223;-59
2021/10/24 01:24:56;;;;;;;20.85;8.05;;;;;;;2.60;72.81;101092.91;4957208;29;19932;-59
2021/10/24 01:27:26;;;;;;;15.20;7.50;;;;;;;2.55;73.41;101091.78;4958129;29;20454;-60
2021/10/24 01:30:01;;;;;;;15.85;7.30;;;;;;;2.45;73.26;101081.09;4940259;29;20445;-60
2021/10/24 01:32:31;;;;;;;15.55;7.47;;;;;;;2.42;73.55;101061.69;4957132;29;20043;-60
2021/10/24 01:35:01;;;;;;;15.20;8.02;;;;;;;2.50;73.04;101095.69;4957036;29;20142;-60
2021/10/24 01:37:35;;;;;;;17.48;8.48;;;;;;;2.73;73.02;101094.41;4957244;29;20043;-59
2021/10/24 01:40:10;;;;;;;18.05;7.95;;;;;;;2.87;73.00;101090.97;4956893;29;20043;-60
2021/10/24 01:42:48;;;;;;;18.70;7.50;;;;;;;2.71;72.50;101071.63;4956756;29;20138;-60
2021/10/24 01:45:23;;;;;;;16.50;7.70;;;;;;;2.77;73.49;101088.75;4957011;29;20560;-60
2021/10/24 01:47:56;;;;;;;17.35;8.25;;;;;;;2.88;72.62;101095.19;4939720;29;20271;-60
2021/10/24 01:50:28;;;;;;;17.48;7.40;;;;;;;2.69;72.74;101080.78;4956651;29;20141;-59
2021/10/24 01:53:02;;;;;;;15.88;7.50;;;;;;;2.75;73.12;101081.88;4940029;29;20488;-60
2021/10/24 01:55:35;;;;;;;18.58;8.05;;;;;;;2.75;72.92;101079.38;4956836;29;20106;-60
2021/10/24 01:58:08;;;;;;;15.15;7.63;;;;;;;2.71;73.36;101080.88;4956886;29;20440;-60
2021/10/24 02:00:42;;;;;;;16.67;7.50;;;;;;;2.69;72.98;101075.72;4939358;29;20102;-60
2021/10/24 02:03:18;;;;;;;13.13;7.07;;;;;;;2.63;73.13;101082.97;4956351;29;20047;-60
2021/10/24 02:06:15;;;;;;;14.80;6.88;;;;;;;2.45;72.80;101081.97;4956288;29;20490;-60
2021/10/24 02:08:49;;;;;;;16.17;7.63;;;;;;;2.38;72.97;101087.47;4956295;29;20047;-59
2021/10/24 02:11:22;;;;;;;19.10;7.40;;;;;;;2.40;73.95;101101.03;4956525;29;20043;-59
2021/10/24 02:13:56;;;;;;;16.85;7.93;;;;;;;2.43;73.27;101113.78;4939243;29;20057;-60
2021/10/24 02:16:29;;;;;;;15.70;7.72;;;;;;;2.26;74.04;101104.44;4939694;29;20138;-59
2021/10/24 02:19:02;;;;;;;19.20;8.43;;;;;;;2.33;74.59;101113.19;4956188;29;20051;-60
2021/10/24 02:21:34;;;;;;;14.95;7.18;;;;;;;2.53;73.72;101111.00;4954761;28;20417;-59
2021/10/24 02:24:09;;;;;;;13.43;7.28;;;;;;;2.43;74.25;101111.28;4956338;29;20517;-59
2021/10/24 02:26:41;;;;;;;14.40;7.00;;;;;;;2.33;73.64;101110.66;4956276;29;20464;-59
2021/10/24 02:29:14;;;;;;;15.05;7.55;;;;;;;2.29;74.37;101122.25;4939287;29;20486;-60
2021/10/24 02:31:46;;;;;;;16.15;8.25;;;;;;;2.38;74.60;101125.25;4955981;29;20051;-60
2021/10/24 02:34:30;;;;;;;18.38;7.95;;;;;;;2.62;74.81;101133.28;4938814;29;20050;-59
2021/10/24 02:37:22;;;;;;;14.93;7.20;;;;;;;2.63;73.80;101128.34;4916200;29;20138;-59
2021/10/24 02:39:54;;;;;;;16.98;8.00;;;;;;;2.61;74.58;101134.97;4916216;29;20044;-59
2021/10/24 02:42:29;;;;;;;17.85;6.93;;;;;;;2.45;73.67;101131.50;4900129;29;20618;-59
2021/10/24 02:44:58;;;;;;;16.00;6.57;;;;;;;2.40;74.39;101138.81;4915664;29;20044;-60
2021/10/24 02:47:29;;;;;;;13.13;6.38;;;;;;;2.37;74.32;101138.66;4915948;29;20044;-60
2021/10/24 02:50:01;;;;;;;14.07;6.57;;;;;;;2.38;74.18;101140.38;4916415;29;20444;-60
2021/10/24 02:52:33;;;;;;;13.43;6.20;;;;;;;2.52;74.77;101133.59;4900038;29;20048;-60
2021/10/24 02:55:07;;;;;;;14.02;6.63;;;;;;;2.65;74.71;101134.34;4900382;29;20074;-60
2021/10/24 02:57:36;;;;;;;14.18;6.63;;;;;;;2.67;73.52;101134.41;4915650;29;20056;-60
2021/10/24 03:00:09;;;;;;;13.88;6.57;;;;;;;2.74;73.35;101123.88;4915513;29;20104;-60
2021/10/24 03:02:44;;;;;;;16.27;6.60;;;;;;;2.78;73.33;101122.38;4884445;29;20096;-60
2021/10/24 03:05:17;;;;;;;15.57;6.68;;;;;;;2.72;73.93;101118.75;4915475;29;20048;-59
2021/10/24 03:07:51;;;;;;;13.43;7.13;;;;;;;2.93;73.63;101128.25;4923850;29;20047;-60
2021/10/24 03:10:25;;;;;;;13.65;6.63;;;;;;;2.68;72.55;101131.13;4955445;29;20047;-60
2021/10/24 03:12:58;;;;;;;12.93;6.28;;;;;;;2.57;72.95;101122.97;4938293;29;20105;-60
2021/10/24 03:15:30;;;;;;;13.63;6.72;;;;;;;2.24;72.74;101131.19;4955748;29;20050;-60
2021/10/24 03:18:00;;;;;;;13.95;7.35;;;;;;;2.27;73.48;101128.84;4938294;29;20073;-60
2021/10/24 03:20:33;;;;;;;14.40;6.13;;;;;;;2.24;73.63;101131.19;4954796;29;20124;-60
2021/10/24 03:23:02;;;;;;;12.95;6.07;;;;;;;2.01;73.12;101136.59;4955419;29;20110;-60
2021/10/24 03:25:36;;;;;;;14.27;6.95;;;;;;;1.85;73.62;101141.53;4938415;29;20441;-59
2021/10/24 03:28:10;;;;;;;13.82;7.43;;;;;;;1.86;74.17;101140.75;4955218;29;20039;-60
2021/10/24 03:30:43;;;;;;;17.55;6.22;;;;;;;1.73;73.57;101148.38;4955291;29;20055;-59
2021/10/24 03:33:12;;;;;;;14.13;6.57;;;;;;;1.50;74.14;101161.28;4939967;29;20043;-61
2021/10/24 03:35:45;;;;;;;13.65;6.57;;;;;;;1.38;74.50;101145.47;4959393;29;20055;-60
2021/10/24 03:38:18;;;;;;;14.30;6.68;;;;;;;1.52;74.79;101142.97;4959120;29;20059;-60
2021/10/24 03:40:53;;;;;;;13.63;6.88;;;;;;;1.44;75.15;101153.38;4959036;29;20110;-60
2021/10/24 03:43:24;;;;;;;12.57;6.43;;;;;;;1.34;74.82;101147.78;4959412;29;20074;-60
2021/10/24 03:45:57;;;;;;;14.13;6.40;;;;;;;1.22;74.88;101157.13;4941814;29;20047;-59
2021/10/24 03:48:30;;;;;;;10.70;5.75;;;;;;;1.22;74.81;101161.31;4958835;29;20143;-62
2021/10/24 03:51:03;;;;;;;16.33;6.70;;;;;;;1.26;74.56;101151.50;4942545;29;20051;-59
2021/10/24 03:53:33;;;;;;;9.77;5.57;;;;;;;1.27;75.36;101154.91;4959121;29;20379;-62
2021/10/24 03:56:07;;;;;;;16.27;6.28;;;;;;;1.29;75.73;101149.19;4959339;29;20161;-59
2021/10/24 03:58:45;;;;;;;13.23;6.32;;;;;;;1.32;75.40;101148.47;4941872;29;20130;-60
2021/10/24 04:01:21;;;;;;;13.95;6.35;;;;;;;1.23;75.42;101153.84;4941616;29;20047;-60
2021/10/24 04:03:54;;;;;;;14.52;6.63;;;;;;;1.41;75.67;101160.75;4958612;29;20061;-60
2021/10/24 04:06:27;;;;;;;11.02;6.03;;;;;;;1.56;75.26;101169.19;4941823;29;20458;-60
2021/10/24 04:09:00;;;;;;;11.93;6.43;;;;;;;1.63;74.80;101161.22;4958478;29;20138;-60
2021/10/24 04:11:35;;;;;;;17.30;7.00;;;;;;;1.67;74.99;101165.66;4958793;29;20047;-60
2021/10/24 04:14:08;;;;;;;14.68;7.40;;;;;;;1.62;74.80;101144.38;4958447;29;20528;-60
2021/10/24 04:16:43;;;;;;;17.15;7.20;;;;;;;1.91;74.87;101169.59;4958357;29;20134;-60
2021/10/24 04:19:26;;;;;;;15.90;7.53;;;;;;;2.02;73.95;101163.50;4958414;29;20043;-60
2021/10/24 04:22:01;;;;;;;14.10;6.50;;;;;;;2.12;73.87;101150.66;4958287;29;20490;-60
2021/10/24 04:24:32;;;;;;;13.07;7.00;;;;;;;2.05;73.20;101136.00;4958249;29;20082;-60
2021/10/24 04:27:06;;;;;;;18.05;7.40;;;;;;;1.95;73.43;101146.31;4958482;29;20401;-60
2021/10/24 04:29:40;;;;;;;14.52;7.22;;;;;;;2.01;73.31;101147.56;4958143;29;20095;-60
2021/10/24 04:32:12;;;;;;;16.70;7.38;;;;;;;2.06;73.13;101155.38;4958093;29;20131;-60
2021/10/24 04:34:45;;;;;;;15.73;7.82;;;;;;;2.02;73.16;101143.38;4958048;29;20102;-60
2021/10/24 04:37:15;;;;;;;14.70;8.02;;;;;;;2.03;73.36;101145.13;4958307;29;20039;-60
2021/10/24 04:39:45;;;;;;;16.63;8.18;;;;;;;2.15;73.02;101150.84;4941119;29;20050;-60
2021/10/24 04:42:16;;;;;;;14.13;6.95;;;;;;;2.20;72.16;101159.53;4958545;29;20051;-61
2021/10/24 04:44:48;;;;;;;13.70;7.20;;;;;;;2.10;71.91;101167.34;4957238;28;20055;-60
2021/10/24 04:47:19;;;;;;;18.55;7.72;;;;;;;2.05;72.16;101161.16;4941254;29;20051;-60
2021/10/24 04:49:51;;;;;;;;;;;;;;;2.06;71.81;101160.41;4958140;29;20055;-60
2021/10/24 04:52:21;;;;;;;13.80;6.72;;;;;;;2.11;72.02;101168.22;4940669;29;20009;-60
2021/10/24 04:54:53;;;;;;;14.73;6.95;;;;;;;2.10;71.36;101174.00;4957724;29;20043;-60
2021/10/24 04:57:24;;;;;;;13.45;6.90;;;;;;;2.06;72.01;101170.47;4957651;29;20051;-60
2021/10/24 04:59:57;;;;;;;14.25;6.75;;;;;;;2.04;71.68;101177.03;4957658;29;20047;-60
2021/10/24 05:02:26;;;;;;;12.95;6.70;;;;;;;2.02;71.32;101187.03;4958160;29;20490;-60
2021/10/24 05:04:59;;;;;;;14.98;7.18;;;;;;;2.00;71.28;101183.56;4940766;29;20086;-60
2021/10/24 05:07:29;;;;;;;14.57;7.53;;;;;;;1.99;71.30;101189.38;4957750;29;20051;-60
2021/10/24 05:10:02;;;;;;;16.10;7.30;;;;;;;1.97;71.45;101192.56;4940422;29;20102;-60
2021/10/24 05:12:33;;;;;;;12.27;6.90;;;;;;;2.00;71.58;101185.22;4940323;29;20044;-60
2021/10/24 05:15:07;;;;;;;14.40;7.50;;;;;;;2.06;71.50;101192.25;4957705;29;20061;-60
2021/10/24 05:17:37;;;;;;;16.42;6.80;;;;;;;2.01;71.12;101192.00;4940232;29;20062;-60
2021/10/24 05:20:07;;;;;;;15.00;7.78;;;;;;;2.03;71.10;101192.94;4956750;29;20102;-60
2021/10/24 05:22:37;;;;;;;15.52;7.07;;;;;;;2.08;71.57;101204.16;4957239;29;20057;-60
2021/10/24 05:25:10;;;;;;;13.32;6.28;;;;;;;2.02;71.30;101201.25;4957492;29;20043;-60
2021/10/24 05:27:48;;;;;;;13.55;6.53;;;;;;;1.84;71.11;101202.75;4957086;29;20086;-59
2021/10/24 05:30:21;;;;;;;15.85;6.40;;;;;;;1.86;71.61;101202.06;4957013;29;20122;-59
2021/10/24 05:32:52;;;;;;;15.55;6.05;;;;;;;1.76;71.86;101212.34;4957880;29;20055;-59
2021/10/24 05:35:31;;;;;;;13.38;5.80;;;;;;;1.65;71.81;101210.00;4940164;29;20078;-59
2021/10/24 05:38:00;;;;;;;12.25;5.65;;;;;;;1.51;71.66;101190.69;4957147;29;20405;-59
2021/10/24 05:40:38;;;;;;;14.35;8.25;;;;;;;1.80;72.30;101220.97;4939810;29;20047;-59
2021/10/24 05:43:14;;;;;;;14.73;7.20;;;;;;;1.85;71.58;101225.47;4940041;29;20051;-60
2021/10/24 05:45:50;;;;;;;19.25;7.90;;;;;;;1.92;72.46;101214.97;4957154;29;20078;-59
2021/10/24 05:48:23;;;;;;;16.58;7.20;;;;;;;1.91;71.56;101220.81;4939966;29;20101;-59
2021/10/24 05:51:04;;;;;;;14.38;7.10;;;;;;;2.01;71.93;101215.53;4957001;29;20142;-59
2021/10/24 05:53:52;;;;;;;15.90;8.40;;;;;;;2.12;72.33;101225.31;4784483;23;23207;-59
2021/10/24 05:56:31;;;;;;;10.48;6.13;;;;;;;2.27;72.49;101227.09;4994701;28;20042;-59
2021/10/24 05:59:07;;;;;;;14.82;5.75;;;;;;;2.50;72.10;101229.25;4977892;28;20050;-59
2021/10/24 06:02:02;;;;;;;13.05;6.15;;;;;;;2.76;71.83;101234.88;4974417;28;20179;-59
2021/10/24 06:04:45;;;;;;;13.30;6.75;;;;;;;2.86;70.52;101234.56;4973793;28;20043;-59
2021/10/24 06:07:40;;;;;;;15.00;6.38;;;;;;;2.85;71.05;101235.38;4972115;28;20078;-59
2021/10/24 06:10:16;;;;;;;11.68;6.03;;;;;;;2.92;70.15;101245.88;4973592;28;20527;-60
2021/10/24 06:12:51;;;;;;;16.20;6.18;;;;;;;2.99;70.72;101249.59;4973880;28;20109;-59
2021/10/24 06:15:25;;;;;;;12.43;6.63;;;;;;;2.94;70.80;101245.97;4973614;28;20074;-59
2021/10/24 06:17:58;;;;;;;16.00;6.32;;;;;;;2.89;70.32;101219.63;4973955;28;20050;-59
2021/10/24 06:20:27;;;;;;;15.60;5.90;;;;;;;3.09;70.41;101244.28;4973537;28;20054;-59
2021/10/24 06:23:01;;;;;;;11.43;6.03;;;;;;;3.19;70.94;101254.06;4973976;28;20057;-59
2021/10/24 06:25:39;;;;;;;16.35;6.60;;;;;;;3.26;70.64;101259.50;4973359;28;20523;-59
2021/10/24 06:28:16;;;;;;;12.65;6.35;;;;;;;3.37;70.24;101257.56;4973573;28;20047;-59
2021/10/24 06:30:53;;;;;;;14.75;6.13;;;;;;;3.47;70.58;101264.84;4973259;28;20493;-59
2021/10/24 06:33:25;;;;;;;12.93;6.10;;;;;;;3.56;70.27;101255.22;4986754;28;20058;-59
2021/10/24 06:36:12;;;;;;;14.82;6.53;;;;;;;3.70;70.64;101266.03;4994671;28;20043;-59
2021/10/24 06:38:52;;;;;;;11.50;5.22;;;;;;;3.76;70.79;101241.13;4994808;28;20050;-59
2021/10/24 06:41:29;;;;;;;11.75;5.47;;;;;;;3.96;70.66;101261.53;4994531;28;20100;-59
2021/10/24 06:44:13;;;;;;;15.20;6.03;;;;;;;4.14;70.44;101260.72;4994998;28;20061;-59
2021/10/24 06:46:47;;;;;;;16.85;6.22;;;;;;;4.23;70.24;101261.19;4994456;28;20065;-60
2021/10/24 06:49:42;;;;;;;11.05;5.50;;;;;;;4.34;70.44;101268.53;4993687;28;20401;-59
2021/10/24 06:52:22;;;;;;;9.30;5.38;;;;;;;4.42;70.71;101272.28;4994527;28;20067;-59
2021/10/24 06:55:12;;;;;;;11.70;4.97;;;;;;;4.34;70.48;101275.25;4973405;28;20061;-59
2021/10/24 06:57:56;;;;;;;10.40;5.25;;;;;;;4.33;70.95;101281.06;4974827;28;20043;-59
2021/10/24 07:00:36;;;;;;;12.75;4.88;;;;;;;4.19;70.88;101279.53;4975101;28;20051;-59
2021/10/24 07:03:31;;;;;;;9.77;5.65;;;;;;;4.33;71.68;101278.53;4955472;28;20062;-59
2021/10/24 07:06:11;;;;;;;11.85;5.63;;;;;;;4.37;71.06;101277.88;4974027;28;20047;-60
2021/10/24 07:09:01;;;;;;;;;;;;;;;4.59;71.13;101294.22;4970614;28;20058;-59
2021/10/24 07:11:31;;;;;;;11.68;4.70;;;;;;;4.64;71.44;101284.31;4974960;28;19922;-59
2021/10/24 07:14:00;;;;;;;9.50;4.68;;;;;;;4.47;71.38;101283.50;4974507;28;20093;-59
2021/10/24 07:16:33;;;;;;;11.13;5.57;;;;;;;4.44;71.53;101288.38;4974229;28;20049;-59
2021/10/24 07:19:04;;;;;;;13.23;5.07;;;;;;;4.51;72.30;101294.63;4973069;28;20070;-60
2021/10/24 07:21:33;;;;;;;14.55;5.85;;;;;;;4.55;71.74;101302.44;4977758;28;20058;-60
2021/10/24 07:24:05;;;;;;;13.95;6.15;;;;;;;4.66;72.09;101296.25;4973608;28;20051;-59
2021/10/24 07:26:40;;;;;;;12.23;5.22;;;;;;;4.72;71.86;101300.72;4974171;28;20058;-59
2021/10/24 07:29:14;;;;;;;12.13;6.22;;;;;;;4.73;71.82;101298.25;4957389;28;20372;-59
2021/10/24 07:31:47;;;;;;;11.85;5.25;;;;;;;4.69;71.85;101301.44;4972844;28;20133;-59
2021/10/24 07:34:40;;;;;;;11.82;5.60;;;;;;;4.75;71.37;101295.84;4974216;28;20050;-59
2021/10/24 07:37:10;;;;;;;13.80;5.55;;;;;;;4.89;71.13;101294.84;4966579;28;20051;-59
2021/10/24 07:39:40;;;;;;;10.88;6.05;;;;;;;4.94;71.22;101288.31;4970687;28;20055;-59
2021/10/24 07:42:11;;;;;;;13.48;6.18;;;;;;;5.18;71.43;101298.72;4974131;28;20051;-59
2021/10/24 07:44:43;;;;;;;17.35;6.25;;;;;;;5.48;71.17;101294.19;4974197;28;20054;-59
2021/10/24 07:47:14;;;;;;;12.23;5.88;;;;;;;5.70;70.80;101289.31;4974012;28;20043;-59
2021/10/24 07:49:45;;;;;;;11.88;5.38;;;;;;;5.90;70.63;101291.09;4974608;28;20039;-59
2021/10/24 07:52:15;;;;;;;9.90;5.35;;;;;;;6.04;70.62;101290.03;4974319;28;20039;-59
2021/10/24 07:54:48;;;;;;;13.57;5.75;;;;;;;6.10;69.93;101290.25;4985055;28;20061;-59
2021/10/24 07:57:17;;;;;;;9.98;5.15;;;;;;;6.20;69.52;101292.41;4993764;28;20129;-59
2021/10/24 07:59:47;;;;;;;11.25;6.20;;;;;;;6.23;69.25;101295.06;4976547;28;20123;-59
2021/10/24 08:02:18;;;;;;;14.00;6.55;;;;;;;6.41;69.21;101293.28;4993507;28;20077;-59
2021/10/24 08:04:50;;;;;;;11.93;5.57;;;;;;;6.52;69.00;101296.28;4976308;28;20078;-59
2021/10/24 08:07:20;;;;;;;16.05;6.10;;;;;;;6.59;68.36;101293.19;4993567;28;20133;-59
2021/10/24 08:09:49;;;;;;;12.25;5.80;;;;;;;6.66;68.21;101290.97;4976499;28;20381;-59
2021/10/24 08:12:19;;;;;;;13.20;5.75;;;;;;;6.78;67.25;101289.72;4993548;28;20062;-59
2021/10/24 08:14:51;;;;;;;12.82;5.72;;;;;;;6.86;67.29;101288.38;4976644;28;20058;-60
2021/10/24 08:17:21;;;;;;;12.07;5.78;;;;;;;6.83;67.43;101288.25;4976138;28;20046;-59
2021/10/24 08:19:59;;;;;;;9.52;5.20;;;;;;;6.97;67.15;101282.03;4977587;28;20130;-59
2021/10/24 08:22:28;;;;;;;9.77;5.38;;;;;;;7.03;67.24;101282.28;4997023;28;20050;-59
2021/10/24 08:24:58;;;;;;;10.00;4.78;;;;;;;6.92;66.91;101268.28;4997176;28;20077;-59
2021/10/24 08:27:32;;;;;;;9.15;4.75;;;;;;;7.12;66.79;101282.66;4997208;28;20243;-60
2021/10/24 08:30:15;;;;;;;9.98;5.13;;;;;;;7.22;66.33;101279.66;4996736;28;20491;-59
2021/10/24 08:32:48;;;;;;;10.57;4.63;;;;;;;7.28;66.71;101265.50;4996853;28;20051;-59
2021/10/24 08:35:24;;;;;;;8.82;4.65;;;;;;;7.54;65.56;101284.25;4979763;28;20085;-59
2021/10/24 08:37:53;;;;;;;12.45;5.45;;;;;;;7.56;66.30;101282.63;4979421;28;20050;-59
2021/10/24 08:40:23;;;;;;;11.57;4.60;;;;;;;7.72;65.48;101284.94;4997040;28;20046;-59
2021/10/24 08:42:58;;;;;;;9.18;4.47;;;;;;;8.06;65.23;101277.69;4996701;28;20133;-59
2021/10/24 08:45:28;;;;;;;8.10;4.00;;;;;;;8.18;64.56;101286.56;4996841;28;20058;-59
2021/10/24 08:47:58;;;;;;;12.32;4.13;;;;;;;8.32;63.95;101283.72;4996636;28;20101;-59
2021/10/24 08:50:29;;;;;;;8.68;3.72;;;;;;;8.41;63.84;101276.41;4996399;28;20062;-59
2021/10/24 08:52:59;;;;;;;7.63;3.83;;;;;;;8.62;63.57;101273.69;4996591;28;20072;-60
2021/10/24 08:55:28;;;;;;;10.27;4.20;;;;;;;8.77;62.19;101279.28;4996146;28;20105;-60
2021/10/24 08:57:58;;;;;;;8.27;4.30;;;;;;;8.85;62.46;101285.50;4996241;28;20054;-59
2021/10/24 09:00:42;;;;;;;11.57;4.60;;;;;;;9.13;62.61;101277.88;4996517;28;20496;-60
2021/10/24 09:03:15;;;;;;;7.78;3.70;;;;;;;9.25;61.60;101283.34;4996219;28;20129;-59
2021/10/24 09:05:47;;;;;;;8.43;4.05;;;;;;;9.36;61.19;101276.88;4996285;28;20046;-59
2021/10/24 09:08:19;;;;;;;7.68;3.92;;;;;;;9.37;61.28;101273.53;4995319;28;20057;-59
2021/10/24 09:10:50;;;;;;;8.80;4.28;;;;;;;9.51;61.10;101280.69;4996125;28;20511;-60
2021/10/24 09:13:23;;;;;;;7.65;3.65;;;;;;;9.57;60.39;101279.22;4996374;28;20050;-59
2021/10/24 09:15:56;;;;;;;9.80;3.58;;;;;;;9.76;59.90;101273.81;4995952;28;20058;-60
2021/10/24 09:18:32;;;;;;;10.70;4.05;;;;;;;9.96;59.52;101269.25;4996318;28;20141;-60
2021/10/24 09:21:26;;;;;;;8.63;4.20;;;;;;;10.15;58.99;101251.09;4996213;28;20407;-60
2021/10/24 09:24:12;;;;;;;9.38;4.10;;;;;;;10.24;58.95;101269.22;4993541;28;20050;-59
2021/10/24 09:26:43;;;;;;;6.28;3.03;;;;;;;10.24;58.95;101271.75;4996240;28;20107;-60
2021/10/24 09:29:14;;;;;;;7.57;3.67;;;;;;;10.30;59.04;101263.38;4996083;28;20054;-60
2021/10/24 09:31:46;;;;;;;7.93;3.63;;;;;;;10.44;58.80;101262.91;4995653;28;20043;-60
2021/10/24 09:34:17;;;;;;;7.53;3.55;;;;;;;10.58;58.25;101266.66;4995959;28;20484;-59
2021/10/24 09:36:52;;;;;;;6.78;3.30;;;;;;;10.71;57.97;101262.72;4996052;28;20050;-60
2021/10/24 09:39:34;;;;;;;7.70;3.70;;;;;;;10.81;57.56;101262.13;4995640;28;20050;-59
2021/10/24 09:42:16;;;;;;;7.88;3.58;;;;;;;10.90;56.95;101262.34;4995577;28;20042;-60
2021/10/24 09:45:02;;;;;;;6.07;3.60;;;;;;;11.23;56.42;101259.66;4995373;28;20042;-60
2021/10/24 09:47:33;;;;;;;8.23;3.30;;;;;;;11.17;55.79;101254.44;4995524;28;20097;-60
2021/10/24 09:50:07;;;;;;;5.80;3.17;;;;;;;11.36;56.08;101248.88;4995421;28;20050;-60
2021/10/24 09:52:38;;;;;;;7.10;3.20;;;;;;;11.45;55.67;101257.59;4995341;28;20038;-60
2021/10/24 09:55:18;;;;;;;7.97;2.95;;;;;;;11.72;55.84;101259.03;4977890;28;20073;-60
2021/10/24 09:57:48;;;;;;;5.65;3.03;;;;;;;11.80;54.53;101254.94;4995209;28;20046;-59
2021/10/24 10:00:17;;;;;;;6.97;2.25;;;;;;;11.80;54.02;101252.38;4995592;28;20043;-59
2021/10/24 10:02:47;;;;;;;7.28;2.53;;;;;;;11.59;53.05;101257.88;4995488;28;20046;-59
2021/10/24 10:05:17;;;;;;;6.22;2.60;;;;;;;11.57;52.87;101264.66;4977800;28;20053;-59
2021/10/24 10:07:48;;;;;;;;;;;;;;;11.84;52.11;101257.59;4995804;28;20483;-60
2021/10/24 10:10:17;;;;;;;5.38;2.60;;;;;;;11.98;51.94;101250.16;4994973;28;19922;-59
2021/10/24 10:12:49;;;;;;;5.40;2.65;;;;;;;12.00;51.75;101246.81;4994924;28;20129;-60
2021/10/24 10:15:21;;;;;;;7.22;2.97;;;;;;;12.11;51.43;101262.38;4995078;28;20073;-59
2021/10/24 10:17:57;;;;;;;6.07;2.85;;;;;;;12.10;51.06;101251.25;4994822;28;20504;-60
2021/10/24 10:20:29;;;;;;;7.18;2.90;;;;;;;12.09;50.90;101254.66;4978005;28;20051;-59
2021/10/24 10:23:06;;;;;;;8.40;2.85;;;;;;;12.09;50.76;101244.41;4994743;28;20046;-59
2021/10/24 10:25:37;;;;;;;7.53;3.38;;;;;;;12.18;50.52;101217.25;4995346;28;20399;-59
2021/10/24 10:28:08;;;;;;;5.97;2.88;;;;;;;12.48;49.92;101243.38;4993684;28;20101;-60
2021/10/24 10:30:39;;;;;;;7.47;2.75;;;;;;;12.75;49.44;101243.81;4994571;28;20096;-60
2021/10/24 10:33:31;;;;;;;6.50;2.60;;;;;;;12.99;48.71;101233.06;4994480;28;20137;-59
2021/10/24 10:36:08;;;;;;;6.38;2.72;;;;;;;13.18;48.39;101235.09;4994851;28;20101;-60
2021/10/24 10:38:42;;;;;;;4.90;2.35;;;;;;;13.31;47.38;101232.72;4995214;28;20054;-60
2021/10/24 10:41:16;;;;;;;4.75;2.10;;;;;;;13.57;46.59;101224.47;4994467;28;20050;-60
2021/10/24 10:44:07;;;;;;;6.43;2.30;;;;;;;13.26;45.79;101228.38;4994405;28;20499;-60
2021/10/24 10:46:36;;;;;;;7.18;2.20;;;;;;;13.15;45.41;101225.66;4994444;28;20073;-60
2021/10/24 10:49:25;;;;;;;5.63;2.10;;;;;;;13.28;45.89;101227.56;4990590;28;20042;-60
2021/10/24 10:51:56;;;;;;;5.10;2.20;;;;;;;13.38;45.35;101203.75;4973428;28;20055;-60
2021/10/24 10:54:57;;;;;;;5.28;2.20;;;;;;;13.74;44.81;101212.72;4978605;28;20121;-60
2021/10/24 10:57:30;;;;;;;4.05;1.90;;;;;;;13.69;44.39;101211.78;4991802;28;20133;-60
2021/10/24 11:00:00;;;;;;;5.93;1.90;;;;;;;13.73;43.90;101200.72;4991956;28;20489;-60
2021/10/24 11:02:35;;;;;;;4.32;1.92;;;;;;;13.98;44.07;101211.28;4994154;28;20053;-60
2021/10/24 11:05:06;;;;;;;4.57;2.25;;;;;;;14.21;43.86;101201.19;4990101;28;20492;-60
2021/10/24 11:07:41;;;;;;;5.32;1.90;;;;;;;14.22;43.20;101197.78;4968586;28;20475;-60
2021/10/24 11:10:37;;;;;;;4.93;1.73;;;;;;;14.49;42.35;101198.03;4972475;28;20105;-61
2021/10/24 11:13:35;;;;;;;5.00;2.10;;;;;;;14.34;42.29;101187.66;4963848;28;20047;-60
2021/10/24 11:16:30;;;;;;;5.97;1.98;;;;;;;14.55;41.41;101186.94;4953473;29;20051;-60
2021/10/24 11:19:05;;;;;;;6.13;2.30;;;;;;;14.78;41.09;101199.09;4953183;29;20066;-60
2021/10/24 11:21:39;;;;;;;7.00;2.08;;;;;;;14.86;41.04;101195.72;4953325;29;20047;-60
2021/10/24 11:24:08;;;;;;;4.75;1.98;;;;;;;14.85;40.40;101186.31;4953259;29;20102;-59
2021/10/24 11:26:39;;;;;;;3.13;1.65;;;;;;;14.90;39.67;101187.19;4953218;29;20051;-59
2021/10/24 11:29:09;;;;;;;3.63;1.60;;;;;;;15.17;40.40;101184.75;4957165;28;20039;-61
2021/10/24 11:31:38;;;;;;;4.50;2.05;;;;;;;15.37;39.96;101172.84;4961365;28;20042;-60
2021/10/24 11:34:07;;;;;;;4.60;1.80;;;;;;;15.67;40.04;101183.25;4972704;28;20134;-60
2021/10/24 11:36:45;;;;;;;3.88;1.77;;;;;;;15.78;38.51;101176.44;4959896;28;20134;-59
2021/10/24 11:39:15;;;;;;;3.20;1.48;;;;;;;15.53;37.88;101173.78;4974464;28;20053;-59
2021/10/24 11:41:46;;;;;;;5.68;1.80;;;;;;;15.57;37.92;101176.41;4974792;28;20035;-59
2021/10/24 11:44:15;;;;;;;3.63;1.40;;;;;;;15.64;38.39;101175.56;4974459;28;20058;-59
2021/10/24 11:46:51;;;;;;;3.75;1.77;;;;;;;15.49;38.26;101166.91;4974186;28;20035;-59
2021/10/24 11:49:21;;;;;;;4.13;1.50;;;;;;;15.55;38.67;101167.78;4974891;28;20399;-60
2021/10/24 11:51:52;;;;;;;5.22;2.25;;;;;;;15.44;38.45;101164.28;4986214;28;20038;-59
2021/10/24 11:54:21;;;;;;;4.88;1.33;;;;;;;15.55;38.48;101165.22;4993984;28;20058;-59
2021/10/24 11:59:38;;;;;;;6.35;2.10;;;;;;;15.81;38.27;101155.81;4990311;28;20046;-59
2021/10/24 12:02:09;;;;;;;4.20;1.60;;;;;;;16.00;38.96;101160.16;4997004;28;20116;-60